Time,TemperatureF,DewpointF,PressureIn,WindDirection,WindDirectionDegrees,WindSpeedMPH,WindSpeedGustMPH,Humidity,HourlyPrecipIn,Conditions,Clouds,dailyrainin,SoftwareType,DateUTC
2013-12-12 00:00:00,16.9,9.1,30.45,SW,225,2.0,4.0,71,0.00,,---,0.00,VWS V14.01,2013-12-12 07:00:00,
2013-12-12 00:05:00,17.1,9.0,30.44,SW,225,3.0,4.0,70,0.00,,---,0.00,VWS V14.01,2013-12-12 07:05:00,
2013-12-12 00:10:00,17.2,8.8,30.44,SW,225,2.0,3.0,69,0.00,,---,0.00,VWS V14.01,2013-12-12 07:10:00,
2013-12-12 00:15:00,16.8,8.4,30.44,SW,225,2.0,4.0,69,0.00,,---,0.00,VWS V14.01,2013-12-12 07:15:00,
2013-12-12 00:20:00,15.8,7.4,30.44,WSW,248,1.0,2.0,69,0.00,,---,0.00,VWS V14.01,2013-12-12 07:20:00,
2013-12-12 00:25:00,13.4,5.1,30.44,West,270,2.0,3.0,69,0.00,,---,0.00,VWS V14.01,2013-12-12 07:25:00,
2013-12-12 00:30:00,11.9,4.6,30.44,West,270,2.0,3.0,72,0.00,,---,0.00,VWS V14.01,2013-12-12 07:30:00,
2013-12-12 00:35:00,11.7,5.3,30.44,SW,225,2.0,4.0,75,0.00,,---,0.00,VWS V14.01,2013-12-12 07:35:00,
2013-12-12 00:40:00,12.3,6.5,30.44,SW,225,3.0,4.0,77,0.00,,---,0.00,VWS V14.01,2013-12-12 07:40:00,
2013-12-12 00:45:00,14.0,7.6,30.43,SW,225,2.0,3.0,75,0.00,,---,0.00,VWS V14.01,2013-12-12 07:45:00,
2013-12-12 00:50:00,14.2,7.2,30.43,SW,225,2.0,4.0,73,0.00,,---,0.00,VWS V14.01,2013-12-12 07:50:00,
2013-12-12 00:55:00,14.5,7.4,30.43,WSW,248,2.0,4.0,73,0.00,,---,0.00,VWS V14.01,2013-12-12 07:55:00,
2013-12-12 01:00:00,14.7,7.0,30.43,West,270,2.0,4.0,71,0.00,,---,0.00,VWS V14.01,2013-12-12 08:00:00,
2013-12-12 01:05:00,14.0,6.7,30.42,SW,225,3.0,5.0,72,0.00,,---,0.00,VWS V14.01,2013-12-12 08:05:00,
2013-12-12 01:10:00,13.9,6.6,30.43,SW,225,2.0,3.0,72,0.00,,---,0.00,VWS V14.01,2013-12-12 08:10:00,
2013-12-12 01:15:00,13.8,6.8,30.42,WSW,248,2.0,4.0,73,0.00,,---,0.00,VWS V14.01,2013-12-12 08:15:00,
2013-12-12 01:20:00,14.7,7.9,30.42,SW,225,3.0,5.0,74,0.00,,---,0.00,VWS V14.01,2013-12-12 08:20:00,
2013-12-12 01:25:00,15.8,8.4,30.42,SW,225,2.0,4.0,72,0.00,,---,0.00,VWS V14.01,2013-12-12 08:25:00,
2013-12-12 01:30:00,16.6,8.9,30.42,SW,225,2.0,4.0,71,0.00,,---,0.00,VWS V14.01,2013-12-12 08:30:00,
2013-12-12 01:35:00,16.5,8.8,30.42,SW,225,1.0,3.0,71,0.00,,---,0.00,VWS V14.01,2013-12-12 08:35:00,
2013-12-12 01:40:00,14.6,5.0,30.42,West,270,2.0,3.0,65,0.00,,---,0.00,VWS V14.01,2013-12-12 08:40:00,
2013-12-12 01:45:00,14.0,6.7,30.42,West,270,2.0,2.0,72,0.00,,---,0.00,VWS V14.01,2013-12-12 08:45:00,
2013-12-12 01:50:00,14.3,7.2,30.42,West,270,2.0,4.0,73,0.00,,---,0.00,VWS V14.01,2013-12-12 08:50:00,
2013-12-12 01:55:00,14.3,6.9,30.42,West,270,2.0,4.0,72,0.00,,---,0.00,VWS V14.01,2013-12-12 08:55:00,
2013-12-12 02:00:00,14.1,6.8,30.42,West,270,2.0,3.0,72,0.00,,---,0.00,VWS V14.01,2013-12-12 09:00:00,
2013-12-12 02:05:00,14.2,7.2,30.42,SW,225,2.0,3.0,73,0.00,,---,0.00,VWS V14.01,2013-12-12 09:05:00,
2013-12-12 02:10:00,15.2,8.1,30.42,SSW,202,2.0,4.0,73,0.00,,---,0.00,VWS V14.01,2013-12-12 09:10:00,
2013-12-12 02:15:00,16.0,8.6,30.42,SSW,202,3.0,4.0,72,0.00,,---,0.00,VWS V14.01,2013-12-12 09:15:00,
2013-12-12 02:20:00,16.8,9.0,30.42,SSW,202,2.0,5.0,71,0.00,,---,0.00,VWS V14.01,2013-12-12 09:20:00,
2013-12-12 02:25:00,17.0,9.2,30.42,SW,225,1.0,2.0,71,0.00,,---,0.00,VWS V14.01,2013-12-12 09:25:00,
2013-12-12 02:30:00,17.7,8.9,30.42,SW,225,1.0,2.0,68,0.00,,---,0.00,VWS V14.01,2013-12-12 09:30:00,
2013-12-12 02:35:00,17.8,9.4,30.42,WSW,248,1.0,2.0,69,0.00,,---,0.00,VWS V14.01,2013-12-12 09:35:00,
2013-12-12 02:40:00,17.6,8.9,30.41,SW,225,0.0,1.0,68,0.00,,---,0.00,VWS V14.01,2013-12-12 09:40:00,
2013-12-12 02:45:00,17.4,8.3,30.41,SW,225,1.0,2.0,67,0.00,,---,0.00,VWS V14.01,2013-12-12 09:45:00,
2013-12-12 02:50:00,15.9,7.5,30.41,West,270,2.0,3.0,69,0.00,,---,0.00,VWS V14.01,2013-12-12 09:50:00,
2013-12-12 02:55:00,14.9,6.6,30.41,SW,225,2.0,4.0,69,0.00,,---,0.00,VWS V14.01,2013-12-12 09:55:00,
2013-12-12 03:00:00,18.2,8.8,30.41,SSE,158,2.0,6.0,66,0.00,,---,0.00,VWS V14.01,2013-12-12 10:00:00,
2013-12-12 03:05:00,19.4,9.9,30.41,SSE,158,2.0,6.0,66,0.00,,---,0.00,VWS V14.01,2013-12-12 10:05:00,
2013-12-12 03:10:00,21.2,10.9,30.41,SE,135,2.0,5.0,64,0.00,,---,0.00,VWS V14.01,2013-12-12 10:10:00,
2013-12-12 03:15:00,22.0,10.6,30.40,SSE,158,3.0,5.0,61,0.00,,---,0.00,VWS V14.01,2013-12-12 10:15:00,
2013-12-12 03:20:00,22.4,10.3,30.40,SSE,158,3.0,7.0,59,0.00,,---,0.00,VWS V14.01,2013-12-12 10:20:00,
2013-12-12 03:25:00,21.6,9.5,30.39,SSE,158,2.0,7.0,59,0.00,,---,0.00,VWS V14.01,2013-12-12 10:25:00,
2013-12-12 03:30:00,21.0,9.3,30.38,SSE,158,2.0,5.0,60,0.00,,---,0.00,VWS V14.01,2013-12-12 10:30:00,
2013-12-12 03:35:00,19.1,7.9,30.38,SSE,158,2.0,5.0,61,0.00,,---,0.00,VWS V14.01,2013-12-12 10:35:00,
2013-12-12 03:40:00,18.2,7.7,30.38,SSE,158,4.0,6.0,63,0.00,,---,0.00,VWS V14.01,2013-12-12 10:40:00,
2013-12-12 03:45:00,17.2,7.1,30.37,SSE,158,4.0,6.0,64,0.00,,---,0.00,VWS V14.01,2013-12-12 10:45:00,
2013-12-12 03:50:00,17.6,8.5,30.37,SSE,158,2.0,4.0,67,0.00,,---,0.00,VWS V14.01,2013-12-12 10:50:00,
2013-12-12 03:55:00,18.2,8.8,30.37,SSE,158,2.0,4.0,66,0.00,,---,0.00,VWS V14.01,2013-12-12 10:55:00,
2013-12-12 04:00:00,18.6,9.1,30.37,SSE,158,2.0,5.0,66,0.00,,---,0.00,VWS V14.01,2013-12-12 11:00:00,
2013-12-12 04:05:00,18.7,9.2,30.37,SSE,158,2.0,5.0,66,0.00,,---,0.00,VWS V14.01,2013-12-12 11:05:00,
2013-12-12 04:10:00,19.0,9.5,30.36,SE,135,5.0,7.0,66,0.00,,---,0.00,VWS V14.01,2013-12-12 11:10:00,
2013-12-12 04:15:00,19.3,9.5,30.36,SSE,158,3.0,5.0,65,0.00,,---,0.00,VWS V14.01,2013-12-12 11:15:00,
2013-12-12 04:20:00,19.8,10.3,30.36,SSE,158,1.0,3.0,66,0.00,,---,0.00,VWS V14.01,2013-12-12 11:20:00,
2013-12-12 04:25:00,20.1,9.9,30.36,SSE,158,1.0,4.0,64,0.00,,---,0.00,VWS V14.01,2013-12-12 11:25:00,
2013-12-12 04:30:00,19.2,9.0,30.36,SSE,158,1.0,3.0,64,0.00,,---,0.00,VWS V14.01,2013-12-12 11:30:00,
2013-12-12 04:35:00,18.7,8.6,30.36,SSE,158,0.0,0.0,64,0.00,,---,0.00,VWS V14.01,2013-12-12 11:35:00,
2013-12-12 04:40:00,18.4,8.6,30.36,East,90,1.0,5.0,65,0.00,,---,0.00,VWS V14.01,2013-12-12 11:40:00,
2013-12-12 04:45:00,18.0,8.6,30.37,East,90,0.0,0.0,66,0.00,,---,0.00,VWS V14.01,2013-12-12 11:45:00,
2013-12-12 04:50:00,18.1,9.0,30.36,East,90,0.0,2.0,67,0.00,,---,0.00,VWS V14.01,2013-12-12 11:50:00,
2013-12-12 04:55:00,18.4,9.0,30.36,East,90,0.0,1.0,66,0.00,,---,0.00,VWS V14.01,2013-12-12 11:55:00,
2013-12-12 05:00:00,18.6,9.1,30.37,East,90,0.0,0.0,66,0.00,,---,0.00,VWS V14.01,2013-12-12 12:00:00,
2013-12-12 05:05:00,19.7,10.2,30.36,East,90,0.0,0.0,66,0.00,,---,0.00,VWS V14.01,2013-12-12 12:05:00,
2013-12-12 05:10:00,20.9,10.3,30.36,East,90,0.0,3.0,63,0.00,,---,0.00,VWS V14.01,2013-12-12 12:10:00,
2013-12-12 05:15:00,23.5,11.7,30.36,East,90,2.0,4.0,60,0.00,,---,0.00,VWS V14.01,2013-12-12 12:15:00,
2013-12-12 05:20:00,24.4,11.0,30.36,East,90,0.0,2.0,56,0.00,,---,0.00,VWS V14.01,2013-12-12 12:20:00,
2013-12-12 05:22:00,24.4,11.0,30.36,East,90,0.0,2.0,56,0.00,,---,0.00,VWS V14.01,2013-12-12 12:22:00,
2013-12-12 05:28:00,25.6,10.9,30.36,East,101,0.0,0.0,53,0.00,,---,0.00,VWS V14.01,2013-12-12 12:28:00,
2013-12-12 05:33:00,22.5,8.8,30.35,SE,143,2.0,6.0,55,0.00,,---,0.00,VWS V14.01,2013-12-12 12:33:00,
2013-12-12 05:35:00,25.6,10.9,30.36,East,101,0.0,0.0,53,0.00,,---,0.00,VWS V14.01,2013-12-12 12:35:00,
2013-12-12 05:40:00,22.5,8.8,30.35,SE,143,2.0,6.0,55,0.00,,---,0.00,VWS V14.01,2013-12-12 12:40:00,
2013-12-12 05:43:00,19.1,8.2,30.36,SSE,149,2.0,5.0,62,0.00,,---,0.00,VWS V14.01,2013-12-12 12:43:00,
2013-12-12 05:45:00,20.0,8.0,30.36,SSE,150,3.0,6.0,59,0.00,,---,0.00,VWS V14.01,2013-12-12 12:45:00,
2013-12-12 05:48:00,18.8,8.3,30.35,SSE,150,2.0,4.0,63,0.00,,---,0.00,VWS V14.01,2013-12-12 12:48:00,
2013-12-12 05:50:00,19.1,8.2,30.36,SSE,149,2.0,5.0,62,0.00,,---,0.00,VWS V14.01,2013-12-12 12:50:00,
2013-12-12 05:53:00,19.0,8.8,30.35,SSE,149,1.0,3.0,64,0.00,,---,0.00,VWS V14.01,2013-12-12 12:53:00,
2013-12-12 05:55:00,18.8,8.3,30.35,SSE,150,2.0,4.0,63,0.00,,---,0.00,VWS V14.01,2013-12-12 12:55:00,
2013-12-12 06:00:00,19.0,8.9,30.35,SSE,149,1.0,3.0,64,0.00,,---,0.00,VWS V14.01,2013-12-12 13:00:00,
2013-12-12 06:03:00,20.1,9.2,30.36,SSE,150,3.0,4.0,62,0.00,,---,0.00,VWS V14.01,2013-12-12 13:03:00,
2013-12-12 06:05:00,19.8,9.6,30.36,SSE,150,4.0,6.0,64,0.00,,---,0.00,VWS V14.01,2013-12-12 13:05:00,
2013-12-12 06:08:00,19.1,8.6,30.36,SSE,149,1.0,5.0,63,0.00,,---,0.00,VWS V14.01,2013-12-12 13:08:00,
2013-12-12 06:10:00,20.1,9.2,30.36,SSE,150,3.0,4.0,62,0.00,,---,0.00,VWS V14.01,2013-12-12 13:10:00,
2013-12-12 06:13:00,18.6,8.5,30.36,SSE,150,0.0,4.0,64,0.00,,---,0.00,VWS V14.01,2013-12-12 13:13:00,
2013-12-12 06:15:00,19.1,8.6,30.36,SSE,149,1.0,5.0,63,0.00,,---,0.00,VWS V14.01,2013-12-12 13:15:00,
2013-12-12 06:25:00,18.5,8.7,30.36,SSE,158,1.0,3.0,65,0.00,,---,0.00,VWS V14.01,2013-12-12 13:25:00,
2013-12-12 06:33:00,18.3,8.9,30.36,SSE,150,1.0,3.0,66,0.00,,---,0.00,VWS V14.01,2013-12-12 13:33:00,
2013-12-12 06:38:00,18.2,9.1,30.36,SSE,150,2.0,3.0,67,0.00,,---,0.00,VWS V14.01,2013-12-12 13:38:00,
2013-12-12 06:43:00,18.2,9.1,30.36,SSE,150,3.0,4.0,67,0.00,,---,0.00,VWS V14.01,2013-12-12 13:43:00,
2013-12-12 06:48:00,18.2,9.1,30.36,SSE,150,2.0,5.0,67,0.00,,---,0.00,VWS V14.01,2013-12-12 13:48:00,
2013-12-12 06:53:00,18.2,9.4,30.36,SSE,150,3.0,4.0,68,0.00,,---,0.00,VWS V14.01,2013-12-12 13:53:00,
2013-12-12 06:58:00,19.1,10.3,30.36,SSE,149,1.0,6.0,68,0.00,,---,0.00,VWS V14.01,2013-12-12 13:58:00,
2013-12-12 07:08:00,19.9,10.4,30.36,SSE,159,0.0,6.0,66,0.00,,---,0.00,VWS V14.01,2013-12-12 14:08:00,
2013-12-12 07:13:00,20.4,10.5,30.35,SE,132,8.0,8.0,65,0.00,,---,0.00,VWS V14.01,2013-12-12 14:13:00,
2013-12-12 07:18:00,21.6,11.3,30.36,SE,131,5.0,10.0,64,0.00,,---,0.00,VWS V14.01,2013-12-12 14:18:00,
2013-12-12 07:28:00,21.3,10.7,30.35,SE,143,3.0,6.0,63,0.00,,---,0.00,VWS V14.01,2013-12-12 14:28:00,
2013-12-12 07:33:00,20.9,9.9,30.36,SE,143,1.0,3.0,62,0.00,,---,0.00,VWS V14.01,2013-12-12 14:33:00,
2013-12-12 07:38:00,20.2,9.3,30.35,SSE,156,4.0,7.0,62,0.00,,---,0.00,VWS V14.01,2013-12-12 14:38:00,
2013-12-12 07:43:00,19.1,8.6,30.36,SSE,153,2.0,7.0,63,0.00,,---,0.00,VWS V14.01,2013-12-12 14:43:00,
2013-12-12 07:48:00,18.4,9.0,30.35,SSE,148,6.0,6.0,66,0.00,,---,0.00,VWS V14.01,2013-12-12 14:48:00,
2013-12-12 08:00:00,20.2,10.7,30.36,SE,135,3.0,6.0,66,0.00,,---,0.00,VWS V14.01,2013-12-12 15:00:00,
2013-12-12 08:05:00,20.3,9.7,30.36,SE,135,3.0,6.0,63,0.00,,---,0.00,VWS V14.01,2013-12-12 15:05:00,
2013-12-12 08:10:00,19.7,9.5,30.36,SE,135,2.0,5.0,64,0.00,,---,0.00,VWS V14.01,2013-12-12 15:10:00,
2013-12-12 08:12:00,19.7,9.5,30.36,SE,135,2.0,5.0,64,0.00,,---,0.00,VWS V14.01,2013-12-12 15:12:00,
2013-12-12 08:18:00,21.1,10.8,30.37,SE,142,5.0,7.0,64,0.00,,---,0.00,VWS V14.01,2013-12-12 15:18:00,
2013-12-12 08:20:00,20.6,10.7,30.37,SSE,153,5.0,5.0,65,0.00,,---,0.00,VWS V14.01,2013-12-12 15:20:00,
2013-12-12 08:23:00,22.0,11.7,30.37,SSE,159,4.0,6.0,64,0.00,,---,0.00,VWS V14.01,2013-12-12 15:23:00,
2013-12-12 08:25:00,21.1,10.9,30.37,SE,142,5.0,7.0,64,0.00,,---,0.00,VWS V14.01,2013-12-12 15:25:00,
2013-12-12 08:28:00,22.8,11.8,30.36,SE,146,2.0,9.0,62,0.00,,---,0.00,VWS V14.01,2013-12-12 15:28:00,
2013-12-12 08:30:00,22.0,11.7,30.37,SSE,159,4.0,6.0,64,0.00,,---,0.00,VWS V14.01,2013-12-12 15:30:00,
2013-12-12 08:33:00,23.9,12.8,30.37,SSE,148,1.0,4.0,62,0.00,,---,0.00,VWS V14.01,2013-12-12 15:33:00,
2013-12-12 08:35:00,22.8,11.8,30.36,SE,146,2.0,9.0,62,0.00,,---,0.00,VWS V14.01,2013-12-12 15:35:00,
2013-12-12 08:38:00,24.7,12.8,30.37,SSE,148,0.0,5.0,60,0.00,,---,0.00,VWS V14.01,2013-12-12 15:38:00,
2013-12-12 08:40:00,23.9,12.8,30.37,SSE,148,1.0,4.0,62,0.00,,---,0.00,VWS V14.01,2013-12-12 15:40:00,
2013-12-12 08:45:00,24.7,12.8,30.37,SSE,148,0.0,5.0,60,0.00,,---,0.00,VWS V14.01,2013-12-12 15:45:00,
2013-12-12 08:48:00,25.9,13.6,30.37,SSE,149,3.0,5.0,59,0.00,,---,0.00,VWS V14.01,2013-12-12 15:48:00,
2013-12-12 08:50:00,25.3,13.0,30.37,SSE,149,4.0,6.0,59,0.00,,---,0.00,VWS V14.01,2013-12-12 15:50:00,
2013-12-12 08:55:00,25.9,13.6,30.37,SSE,149,3.0,5.0,59,0.00,,---,0.00,VWS V14.01,2013-12-12 15:55:00,
2013-12-12 09:00:00,26.1,13.8,30.37,SSE,158,2.0,5.0,59,0.00,,---,0.00,VWS V14.01,2013-12-12 16:00:00,
2013-12-12 09:05:00,25.9,13.2,30.37,SSE,158,2.0,4.0,58,0.00,,---,0.00,VWS V14.01,2013-12-12 16:05:00,
2013-12-12 09:10:00,25.9,13.6,30.37,SSE,158,2.0,5.0,59,0.00,,---,0.00,VWS V14.01,2013-12-12 16:10:00,
2013-12-12 09:15:00,26.2,13.8,30.37,SE,135,4.0,7.0,59,0.00,,---,0.00,VWS V14.01,2013-12-12 16:15:00,
2013-12-12 09:20:00,26.4,13.6,30.37,SE,135,5.0,7.0,58,0.00,,---,0.00,VWS V14.01,2013-12-12 16:20:00,
2013-12-12 09:25:00,27.2,14.8,30.36,SSE,158,4.0,8.0,59,0.00,,---,0.00,VWS V14.01,2013-12-12 16:25:00,
2013-12-12 09:30:00,28.5,16.0,30.36,SSE,158,3.0,6.0,59,0.00,,---,0.00,VWS V14.01,2013-12-12 16:30:00,
2013-12-12 09:35:00,29.5,16.6,30.36,SSE,158,2.0,4.0,58,0.00,,---,0.00,VWS V14.01,2013-12-12 16:35:00,
2013-12-12 09:40:00,30.7,16.9,30.36,SSE,158,2.0,4.0,56,0.00,,---,0.00,VWS V14.01,2013-12-12 16:40:00,
2013-12-12 09:45:00,31.2,16.9,30.36,SSE,158,1.0,4.0,55,0.00,,---,0.00,VWS V14.01,2013-12-12 16:45:00,
2013-12-12 09:50:00,31.6,17.3,30.36,SSE,158,2.0,4.0,55,0.00,,---,0.00,VWS V14.01,2013-12-12 16:50:00,
2013-12-12 09:55:00,32.0,16.8,30.36,SSE,158,2.0,4.0,53,0.00,,---,0.00,VWS V14.01,2013-12-12 16:55:00,
2013-12-12 10:00:00,32.7,17.9,30.36,SSE,158,0.0,3.0,54,0.00,,---,0.00,VWS V14.01,2013-12-12 17:00:00,
2013-12-12 10:05:00,33.6,18.7,30.36,SSE,158,0.0,1.0,54,0.00,,---,0.00,VWS V14.01,2013-12-12 17:05:00,
2013-12-12 10:10:00,34.4,18.6,30.36,SSE,158,0.0,2.0,52,0.00,,---,0.00,VWS V14.01,2013-12-12 17:10:00,
2013-12-12 10:15:00,34.8,18.5,30.35,SSE,158,1.0,2.0,51,0.00,,---,0.00,VWS V14.01,2013-12-12 17:15:00,
2013-12-12 10:20:00,35.2,18.9,30.35,SSE,158,1.0,3.0,51,0.00,,---,0.00,VWS V14.01,2013-12-12 17:20:00,
2013-12-12 10:25:00,35.0,18.2,30.35,SSE,158,2.0,5.0,50,0.00,,---,0.00,VWS V14.01,2013-12-12 17:25:00,
2013-12-12 10:30:00,34.4,17.7,30.35,SSE,158,4.0,5.0,50,0.00,,---,0.00,VWS V14.01,2013-12-12 17:30:00,
2013-12-12 10:35:00,34.4,19.0,30.35,SSE,158,2.0,5.0,53,0.00,,---,0.00,VWS V14.01,2013-12-12 17:35:00,
2013-12-12 10:40:00,35.7,20.3,30.35,SSE,158,0.0,2.0,53,0.00,,---,0.00,VWS V14.01,2013-12-12 17:40:00,
2013-12-12 10:45:00,36.5,19.6,30.35,SSE,158,1.0,3.0,50,0.00,,---,0.00,VWS V14.01,2013-12-12 17:45:00,
2013-12-12 10:50:00,36.8,20.4,30.34,SSE,158,0.0,2.0,51,0.00,,---,0.00,VWS V14.01,2013-12-12 17:50:00,
2013-12-12 10:55:00,38.0,21.5,30.34,SSE,158,0.0,0.0,51,0.00,,---,0.00,VWS V14.01,2013-12-12 17:55:00,
2013-12-12 11:00:00,39.9,23.3,30.34,SSE,158,0.0,0.0,51,0.00,,---,0.00,VWS V14.01,2013-12-12 18:00:00,
2013-12-12 11:05:00,41.2,19.9,30.34,SSE,158,0.0,0.0,42,0.00,,---,0.00,VWS V14.01,2013-12-12 18:05:00,
2013-12-12 11:10:00,38.3,17.2,30.33,SSE,158,0.0,0.0,42,0.00,,---,0.00,VWS V14.01,2013-12-12 18:10:00,
2013-12-12 11:15:00,39.5,21.0,30.33,SSE,158,0.0,0.0,47,0.00,,---,0.00,VWS V14.01,2013-12-12 18:15:00,
2013-12-12 11:20:00,40.2,21.1,30.32,SSE,158,0.0,0.0,46,0.00,,---,0.00,VWS V14.01,2013-12-12 18:20:00,
2013-12-12 11:25:00,40.7,21.5,30.32,SSE,158,0.0,0.0,46,0.00,,---,0.00,VWS V14.01,2013-12-12 18:25:00,
2013-12-12 11:30:00,40.3,21.2,30.32,West,270,0.0,1.0,46,0.00,,---,0.00,VWS V14.01,2013-12-12 18:30:00,
2013-12-12 11:35:00,40.5,21.9,30.31,West,270,0.0,1.0,47,0.00,,---,0.00,VWS V14.01,2013-12-12 18:35:00,
2013-12-12 11:40:00,41.3,21.6,30.31,SSW,202,0.0,1.0,45,0.00,,---,0.00,VWS V14.01,2013-12-12 18:40:00,
2013-12-12 11:45:00,41.9,22.1,30.30,SSW,202,2.0,3.0,45,0.00,,---,0.00,VWS V14.01,2013-12-12 18:45:00,
2013-12-12 11:50:00,42.5,24.2,30.30,SSW,202,0.0,1.0,48,0.00,,---,0.00,VWS V14.01,2013-12-12 18:50:00,
2013-12-12 11:55:00,42.8,23.5,30.30,SSW,202,0.0,0.0,46,0.00,,---,0.00,VWS V14.01,2013-12-12 18:55:00,
2013-12-12 12:00:00,43.1,24.8,30.30,SSW,202,0.0,0.0,48,0.00,,---,0.00,VWS V14.01,2013-12-12 19:00:00,
2013-12-12 12:05:00,43.9,23.4,30.29,SSW,202,0.0,0.0,44,0.00,,---,0.00,VWS V14.01,2013-12-12 19:05:00,
2013-12-12 12:10:00,43.1,22.7,30.29,South,180,1.0,2.0,44,0.00,,---,0.00,VWS V14.01,2013-12-12 19:10:00,
2013-12-12 12:15:00,42.2,21.3,30.28,SE,135,1.0,1.0,43,0.00,,---,0.00,VWS V14.01,2013-12-12 19:15:00,
2013-12-12 12:20:00,42.5,21.0,30.28,SE,135,0.0,1.0,42,0.00,,---,0.00,VWS V14.01,2013-12-12 19:20:00,
2013-12-12 12:25:00,42.3,21.4,30.28,SE,135,0.0,1.0,43,0.00,,---,0.00,VWS V14.01,2013-12-12 19:25:00,
2013-12-12 12:30:00,42.0,22.2,30.27,SE,135,0.0,1.0,45,0.00,,---,0.00,VWS V14.01,2013-12-12 19:30:00,
2013-12-12 12:35:00,41.7,23.0,30.27,ENE,68,1.0,2.0,47,0.01,,---,0.01,VWS V14.01,2013-12-12 19:35:00,
2013-12-12 12:40:00,41.9,22.6,30.27,East,90,1.0,2.0,46,0.01,,---,0.01,VWS V14.01,2013-12-12 19:40:00,
2013-12-12 12:45:00,42.1,20.1,30.27,East,90,2.0,2.0,41,0.01,,---,0.01,VWS V14.01,2013-12-12 19:45:00,
2013-12-12 12:50:00,42.5,21.0,30.26,East,90,0.0,1.0,42,0.01,,---,0.01,VWS V14.01,2013-12-12 19:50:00,
2013-12-12 12:55:00,42.8,20.8,30.26,East,90,0.0,1.0,41,0.01,,---,0.01,VWS V14.01,2013-12-12 19:55:00,
2013-12-12 13:00:00,43.4,19.5,30.26,East,90,1.0,2.0,38,0.01,,---,0.01,VWS V14.01,2013-12-12 20:00:00,
2013-12-12 13:05:00,43.9,20.6,30.26,SE,135,1.0,3.0,39,0.01,,---,0.01,VWS V14.01,2013-12-12 20:05:00,
2013-12-12 13:10:00,44.0,20.6,30.25,SSE,158,3.0,4.0,39,0.01,,---,0.01,VWS V14.01,2013-12-12 20:10:00,
2013-12-12 13:15:00,44.2,22.0,30.25,South,180,2.0,4.0,41,0.01,,---,0.01,VWS V14.01,2013-12-12 20:15:00,
2013-12-12 13:20:00,44.5,22.9,30.25,SSE,158,2.0,4.0,42,0.01,,---,0.01,VWS V14.01,2013-12-12 20:20:00,
2013-12-12 13:25:00,44.6,22.9,30.25,SE,135,1.0,2.0,42,0.01,,---,0.01,VWS V14.01,2013-12-12 20:25:00,
2013-12-12 13:30:00,44.6,22.4,30.24,SE,135,1.0,2.0,41,0.01,,---,0.01,VWS V14.01,2013-12-12 20:30:00,
2013-12-12 13:35:00,44.1,23.0,30.24,SSE,158,3.0,4.0,43,0.01,,---,0.01,VWS V14.01,2013-12-12 20:35:00,
2013-12-12 13:40:00,43.4,23.0,30.24,SE,135,2.0,5.0,44,0.00,,---,0.01,VWS V14.01,2013-12-12 20:40:00,
2013-12-12 13:45:00,43.1,22.1,30.23,SSE,158,3.0,6.0,43,0.00,,---,0.01,VWS V14.01,2013-12-12 20:45:00,
2013-12-12 13:50:00,42.9,22.5,30.23,SSE,158,3.0,5.0,44,0.00,,---,0.01,VWS V14.01,2013-12-12 20:50:00,
2013-12-12 13:55:00,42.2,22.4,30.23,SSE,158,3.0,4.0,45,0.00,,---,0.01,VWS V14.01,2013-12-12 20:55:00,
2013-12-12 14:00:00,41.6,22.4,30.23,SE,135,2.0,3.0,46,0.00,,---,0.01,VWS V14.01,2013-12-12 21:00:00,
2013-12-12 14:05:00,41.4,22.2,30.22,SE,135,2.0,3.0,46,0.00,,---,0.01,VWS V14.01,2013-12-12 21:05:00,
2013-12-12 14:10:00,40.9,23.2,30.22,ESE,112,1.0,2.0,49,0.00,,---,0.01,VWS V14.01,2013-12-12 21:10:00,
2013-12-12 14:15:00,40.6,23.4,30.21,ESE,112,0.0,1.0,50,0.00,,---,0.01,VWS V14.01,2013-12-12 21:15:00,
2013-12-12 14:20:00,40.3,23.6,30.21,ESE,112,0.0,1.0,51,0.00,,---,0.01,VWS V14.01,2013-12-12 21:20:00,
2013-12-12 14:25:00,39.7,23.5,30.21,ESE,112,1.0,1.0,52,0.00,,---,0.01,VWS V14.01,2013-12-12 21:25:00,
2013-12-12 14:30:00,39.8,23.2,30.21,ESE,112,0.0,1.0,51,0.00,,---,0.01,VWS V14.01,2013-12-12 21:30:00,
2013-12-12 14:35:00,40.0,22.9,30.21,SSE,158,1.0,3.0,50,0.00,,---,0.01,VWS V14.01,2013-12-12 21:35:00,
2013-12-12 14:40:00,40.4,22.3,30.21,SSE,158,2.0,3.0,48,0.00,,---,0.01,VWS V14.01,2013-12-12 21:40:00,
2013-12-12 14:45:00,40.1,23.0,30.21,SSE,158,2.0,3.0,50,0.00,,---,0.01,VWS V14.01,2013-12-12 21:45:00,
2013-12-12 14:50:00,39.6,23.0,30.21,ESE,112,2.0,5.0,51,0.00,,---,0.01,VWS V14.01,2013-12-12 21:50:00,
2013-12-12 14:55:00,39.1,23.4,30.21,East,90,1.0,5.0,53,0.00,,---,0.01,VWS V14.01,2013-12-12 21:55:00,
2013-12-12 15:00:00,38.6,24.3,30.20,East,90,2.0,4.0,56,0.00,,---,0.01,VWS V14.01,2013-12-12 22:00:00,
2013-12-12 15:05:00,38.2,24.3,30.20,NNE,22,2.0,4.0,57,0.00,,---,0.01,VWS V14.01,2013-12-12 22:05:00,
2013-12-12 15:10:00,37.5,24.1,30.20,ENE,68,2.0,4.0,58,0.00,,---,0.01,VWS V14.01,2013-12-12 22:10:00,
2013-12-12 15:15:00,37.6,24.2,30.20,NNE,22,1.0,5.0,58,0.00,,---,0.01,VWS V14.01,2013-12-12 22:15:00,
2013-12-12 15:20:00,38.1,23.8,30.20,WNW,292,1.0,2.0,56,0.00,,---,0.01,VWS V14.01,2013-12-12 22:20:00,
2013-12-12 15:25:00,38.4,22.8,30.20,East,90,2.0,4.0,53,0.00,,---,0.01,VWS V14.01,2013-12-12 22:25:00,
2013-12-12 15:30:00,38.8,22.2,30.20,East,90,2.0,6.0,51,0.00,,---,0.01,VWS V14.01,2013-12-12 22:30:00,
2013-12-12 15:35:00,39.0,22.0,30.20,SE,135,2.0,4.0,50,0.00,,---,0.01,VWS V14.01,2013-12-12 22:35:00,
2013-12-12 15:40:00,38.5,23.8,30.19,SE,135,0.0,0.0,55,0.00,,---,0.01,VWS V14.01,2013-12-12 22:40:00,
2013-12-12 15:45:00,37.5,23.7,30.19,SE,135,0.0,0.0,57,0.00,,---,0.01,VWS V14.01,2013-12-12 22:45:00,
2013-12-12 15:50:00,36.8,23.4,30.19,SE,135,0.0,0.0,58,0.00,,---,0.01,VWS V14.01,2013-12-12 22:50:00,
2013-12-12 15:55:00,36.5,23.5,30.19,SE,135,0.0,0.0,59,0.00,,---,0.01,VWS V14.01,2013-12-12 22:55:00,
2013-12-12 16:00:00,36.1,23.2,30.19,SE,135,0.0,0.0,59,0.00,,---,0.01,VWS V14.01,2013-12-12 23:00:00,
2013-12-12 16:05:00,35.7,23.2,30.19,SE,135,0.0,0.0,60,0.00,,---,0.01,VWS V14.01,2013-12-12 23:05:00,
2013-12-12 16:10:00,34.9,22.8,30.19,SSW,202,1.0,4.0,61,0.00,,---,0.01,VWS V14.01,2013-12-12 23:10:00,
2013-12-12 16:15:00,34.8,22.7,30.19,SSW,202,3.0,3.0,61,0.00,,---,0.01,VWS V14.01,2013-12-12 23:15:00,
2013-12-12 16:20:00,34.7,22.2,30.19,SSW,202,2.0,4.0,60,0.00,,---,0.01,VWS V14.01,2013-12-12 23:20:00,
2013-12-12 16:25:00,34.5,22.5,30.18,SSW,202,1.0,2.0,61,0.00,,---,0.01,VWS V14.01,2013-12-12 23:25:00,
2013-12-12 16:30:00,34.3,21.9,30.18,SSW,202,2.0,4.0,60,0.00,,---,0.01,VWS V14.01,2013-12-12 23:30:00,
2013-12-12 16:35:00,34.0,21.6,30.18,SSW,202,3.0,5.0,60,0.00,,---,0.01,VWS V14.01,2013-12-12 23:35:00,
2013-12-12 16:40:00,34.1,21.3,30.18,SSW,202,2.0,4.0,59,0.00,,---,0.01,VWS V14.01,2013-12-12 23:40:00,
2013-12-12 16:45:00,33.9,21.1,30.17,SSW,202,1.0,3.0,59,0.00,,---,0.01,VWS V14.01,2013-12-12 23:45:00,
2013-12-12 16:50:00,33.3,20.5,30.17,SSW,202,0.0,1.0,59,0.00,,---,0.01,VWS V14.01,2013-12-12 23:50:00,
2013-12-12 16:55:00,33.1,20.7,30.17,WSW,248,0.0,2.0,60,0.00,,---,0.01,VWS V14.01,2013-12-12 23:55:00,
2013-12-12 17:00:00,32.8,20.1,30.17,SSW,202,0.0,1.0,59,0.00,,---,0.01,VWS V14.01,2013-12-13 00:00:00,
2013-12-12 17:05:00,32.7,20.0,30.16,SE,135,0.0,1.0,59,0.00,,---,0.01,VWS V14.01,2013-12-13 00:05:00,
2013-12-12 17:10:00,32.5,19.8,30.16,SSE,158,0.0,2.0,59,0.00,,---,0.01,VWS V14.01,2013-12-13 00:10:00,
2013-12-12 17:15:00,32.2,19.9,30.16,SSE,158,1.0,1.0,60,0.00,,---,0.01,VWS V14.01,2013-12-13 00:15:00,
2013-12-12 17:20:00,31.4,19.9,30.16,South,180,0.0,1.0,62,0.00,,---,0.01,VWS V14.01,2013-12-13 00:20:00,
2013-12-12 17:25:00,31.3,19.0,30.17,SSE,158,1.0,2.0,60,0.00,,---,0.01,VWS V14.01,2013-12-13 00:25:00,
2013-12-12 17:30:00,31.2,19.3,30.16,WSW,248,1.0,2.0,61,0.00,,---,0.01,VWS V14.01,2013-12-13 00:30:00,
2013-12-12 17:35:00,31.4,19.1,30.16,SSE,158,3.0,4.0,60,0.00,,---,0.01,VWS V14.01,2013-12-13 00:35:00,
2013-12-12 17:40:00,31.6,19.3,30.16,SSE,158,1.0,3.0,60,0.00,,---,0.01,VWS V14.01,2013-12-13 00:40:00,
2013-12-12 17:45:00,30.6,18.8,30.16,West,270,2.0,3.0,61,0.00,,---,0.01,VWS V14.01,2013-12-13 00:45:00,
2013-12-12 17:50:00,30.4,19.3,30.15,WNW,292,2.0,4.0,63,0.00,,---,0.01,VWS V14.01,2013-12-13 00:50:00,
2013-12-12 17:55:00,30.2,18.8,30.15,West,270,1.0,2.0,62,0.00,,---,0.01,VWS V14.01,2013-12-13 00:55:00,
2013-12-12 18:00:00,28.2,18.3,30.16,West,270,2.0,3.0,66,0.00,,---,0.01,VWS V14.01,2013-12-13 01:00:00,
2013-12-12 18:05:00,27.6,18.8,30.15,West,270,2.0,3.0,69,0.00,,---,0.01,VWS V14.01,2013-12-13 01:05:00,
2013-12-12 18:10:00,26.9,18.8,30.15,SW,225,2.0,4.0,71,0.00,,---,0.01,VWS V14.01,2013-12-13 01:10:00,
2013-12-12 18:15:00,26.9,19.1,30.15,SW,225,1.0,4.0,72,0.00,,---,0.01,VWS V14.01,2013-12-13 01:15:00,
2013-12-12 18:20:00,27.5,19.4,30.15,WSW,248,2.0,3.0,71,0.00,,---,0.01,VWS V14.01,2013-12-13 01:20:00,
2013-12-12 18:25:00,27.4,19.2,30.15,WSW,248,2.0,4.0,71,0.00,,---,0.01,VWS V14.01,2013-12-13 01:25:00,
2013-12-12 18:30:00,28.1,19.9,30.15,SW,225,2.0,3.0,71,0.00,,---,0.01,VWS V14.01,2013-12-13 01:30:00,
2013-12-12 18:35:00,28.5,20.3,30.15,SSW,202,2.0,3.0,71,0.00,,---,0.01,VWS V14.01,2013-12-13 01:35:00,
2013-12-12 18:40:00,28.8,20.9,30.14,South,180,6.0,9.0,72,0.00,,---,0.01,VWS V14.01,2013-12-13 01:40:00,
2013-12-12 18:45:00,29.5,21.6,30.14,SSE,158,7.0,9.0,72,0.00,,---,0.01,VWS V14.01,2013-12-13 01:45:00,
2013-12-12 18:50:00,30.1,22.5,30.14,SSE,158,7.0,9.0,73,0.00,,---,0.01,VWS V14.01,2013-12-13 01:50:00,
2013-12-12 19:01:00,30.0,21.8,30.14,SSE,158,4.0,6.0,71,0.00,,---,0.01,VWS V14.01,2013-12-13 02:01:00,
2013-12-12 19:08:00,27.7,19.5,30.13,WNW,283,1.0,2.0,71,0.00,,---,0.01,VWS V14.01,2013-12-13 02:08:00,
2013-12-12 19:13:00,27.0,20.1,30.13,WNW,282,0.0,1.0,75,0.00,,---,0.01,VWS V14.01,2013-12-13 02:13:00,
2013-12-12 19:18:00,27.9,21.3,30.13,SSE,163,5.0,7.0,76,0.00,,---,0.01,VWS V14.01,2013-12-13 02:18:00,
2013-12-12 19:23:00,29.3,22.1,30.12,SSE,160,7.0,10.0,74,0.00,,---,0.01,VWS V14.01,2013-12-13 02:23:00,
2013-12-12 19:28:00,30.4,22.5,30.12,SSE,163,7.0,9.0,72,0.00,,---,0.01,VWS V14.01,2013-12-13 02:28:00,
2013-12-12 19:33:00,30.6,22.0,30.12,SSE,163,8.0,9.0,70,0.00,,---,0.01,VWS V14.01,2013-12-13 02:33:00,
2013-12-12 19:38:00,30.8,22.2,30.12,SSE,164,7.0,9.0,70,0.00,,---,0.01,VWS V14.01,2013-12-13 02:38:00,
2013-12-12 19:43:00,31.0,22.4,30.12,SE,132,6.0,9.0,70,0.00,,---,0.01,VWS V14.01,2013-12-13 02:43:00,
2013-12-12 19:48:00,31.0,22.4,30.12,SSE,159,7.0,9.0,70,0.00,,---,0.01,VWS V14.01,2013-12-13 02:48:00,
2013-12-12 19:53:00,30.8,22.2,30.11,SSE,163,6.0,9.0,70,0.00,,---,0.01,VWS V14.01,2013-12-13 02:53:00,
2013-12-12 19:58:00,30.8,22.2,30.11,SSE,166,7.0,9.0,70,0.00,,---,0.01,VWS V14.01,2013-12-13 02:58:00,
2013-12-12 20:03:00,31.3,21.6,30.11,South,181,7.0,9.0,67,0.00,,---,0.01,VWS V14.01,2013-12-13 03:03:00,
2013-12-12 20:15:00,31.8,21.8,30.10,SSE,158,7.0,9.0,66,0.00,,---,0.01,VWS V14.01,2013-12-13 03:15:00,
2013-12-12 20:20:00,31.8,21.4,30.10,SSE,158,7.0,8.0,65,0.00,,---,0.01,VWS V14.01,2013-12-13 03:20:00,
2013-12-12 20:25:00,31.6,21.6,30.09,SSE,158,6.0,8.0,66,0.00,,---,0.01,VWS V14.01,2013-12-13 03:25:00,
2013-12-12 20:30:00,31.6,21.6,30.10,SSE,158,6.0,8.0,66,0.00,,---,0.01,VWS V14.01,2013-12-13 03:30:00,
2013-12-12 20:35:00,31.6,21.2,30.10,SSE,158,5.0,7.0,65,0.00,,---,0.01,VWS V14.01,2013-12-13 03:35:00,
2013-12-12 20:40:00,31.1,20.4,30.09,SSE,158,3.0,5.0,64,0.00,,---,0.01,VWS V14.01,2013-12-13 03:40:00,
2013-12-12 20:45:00,29.3,19.7,30.09,WSW,248,2.0,3.0,67,0.00,,---,0.01,VWS V14.01,2013-12-13 03:45:00,
2013-12-12 20:50:00,29.1,19.5,30.09,West,270,1.0,2.0,67,0.00,,---,0.01,VWS V14.01,2013-12-13 03:50:00,
2013-12-12 20:55:00,28.8,19.6,30.08,WSW,248,2.0,3.0,68,0.00,,---,0.01,VWS V14.01,2013-12-13 03:55:00,
2013-12-12 21:00:00,29.0,19.8,30.08,SSW,202,1.0,2.0,68,0.00,,---,0.01,VWS V14.01,2013-12-13 04:00:00,
2013-12-12 21:05:00,28.7,20.2,30.08,South,180,4.0,4.0,70,0.00,,---,0.01,VWS V14.01,2013-12-13 04:05:00,
2013-12-12 21:10:00,29.0,20.1,30.07,SSE,158,2.0,4.0,69,0.00,,---,0.01,VWS V14.01,2013-12-13 04:10:00,
2013-12-12 21:15:00,26.8,18.7,30.07,West,270,2.0,4.0,71,0.00,,---,0.01,VWS V14.01,2013-12-13 04:15:00,
2013-12-12 21:20:00,26.3,19.1,30.07,West,270,2.0,2.0,74,0.00,,---,0.01,VWS V14.01,2013-12-13 04:20:00,
2013-12-12 21:25:00,26.2,19.1,30.07,WSW,248,2.0,3.0,74,0.00,,---,0.01,VWS V14.01,2013-12-13 04:25:00,
2013-12-12 21:30:00,26.1,19.3,30.06,WSW,248,1.0,2.0,75,0.00,,---,0.01,VWS V14.01,2013-12-13 04:30:00,
2013-12-12 21:35:00,26.3,19.1,30.06,WSW,248,1.0,1.0,74,0.00,,---,0.01,VWS V14.01,2013-12-13 04:35:00,
2013-12-12 21:40:00,26.6,19.1,30.06,WSW,248,0.0,1.0,73,0.00,,---,0.01,VWS V14.01,2013-12-13 04:40:00,
2013-12-12 21:45:00,26.7,19.5,30.06,WSW,248,0.0,1.0,74,0.00,,---,0.01,VWS V14.01,2013-12-13 04:45:00,
2013-12-12 21:50:00,26.7,19.5,30.06,WSW,248,0.0,1.0,74,0.00,,---,0.01,VWS V14.01,2013-12-13 04:50:00,
2013-12-12 21:55:00,26.8,19.3,30.05,WSW,248,0.0,1.0,73,0.00,,---,0.01,VWS V14.01,2013-12-13 04:55:00,
2013-12-12 22:00:00,27.7,19.5,30.05,WSW,248,0.0,0.0,71,0.00,,---,0.01,VWS V14.01,2013-12-13 05:00:00,
2013-12-12 22:05:00,28.5,19.6,30.05,WSW,248,0.0,0.0,69,0.00,,---,0.01,VWS V14.01,2013-12-13 05:05:00,
2013-12-12 22:10:00,28.4,19.5,30.04,WSW,248,0.0,0.0,69,0.00,,---,0.01,VWS V14.01,2013-12-13 05:10:00,
2013-12-12 22:15:00,28.2,19.4,30.04,WSW,248,0.0,1.0,69,0.00,,---,0.01,VWS V14.01,2013-12-13 05:15:00,
2013-12-12 22:20:00,27.6,19.1,30.03,WSW,248,0.0,1.0,70,0.00,,---,0.01,VWS V14.01,2013-12-13 05:20:00,
2013-12-12 22:25:00,27.0,19.2,30.03,East,90,0.0,1.0,72,0.00,,---,0.01,VWS V14.01,2013-12-13 05:25:00,
2013-12-12 22:30:00,26.3,19.1,30.03,East,90,0.0,1.0,74,0.00,,---,0.01,VWS V14.01,2013-12-13 05:30:00,
2013-12-12 22:35:00,25.7,18.9,30.03,East,90,0.0,0.0,75,0.00,,---,0.01,VWS V14.01,2013-12-13 05:35:00,
2013-12-12 22:40:00,26.2,20.6,30.03,ESE,112,1.0,4.0,79,0.00,,---,0.01,VWS V14.01,2013-12-13 05:40:00,
2013-12-12 22:45:00,26.7,20.5,30.03,East,90,0.0,2.0,77,0.00,,---,0.01,VWS V14.01,2013-12-13 05:45:00,
2013-12-12 22:50:00,26.5,20.3,30.02,WNW,292,1.0,3.0,77,0.00,,---,0.01,VWS V14.01,2013-12-13 05:50:00,
2013-12-12 22:55:00,26.3,20.4,30.02,West,270,1.0,3.0,78,0.00,,---,0.01,VWS V14.01,2013-12-13 05:55:00,
2013-12-12 23:00:00,26.8,20.3,30.01,SSE,158,1.0,8.0,76,0.00,,---,0.01,VWS V14.01,2013-12-13 06:00:00,
2013-12-12 23:05:00,27.4,20.2,30.01,SSW,202,1.0,4.0,74,0.00,,---,0.01,VWS V14.01,2013-12-13 06:05:00,
2013-12-12 23:10:00,27.1,19.3,30.00,ESE,112,2.0,3.0,72,0.00,,---,0.01,VWS V14.01,2013-12-13 06:10:00,
2013-12-12 23:15:00,27.3,19.1,30.00,SSW,202,1.0,5.0,71,0.00,,---,0.01,VWS V14.01,2013-12-13 06:15:00,
2013-12-12 23:20:00,27.0,19.2,30.00,ENE,68,2.0,7.0,72,0.00,,---,0.01,VWS V14.01,2013-12-13 06:20:00,
2013-12-12 23:25:00,26.9,19.1,30.00,West,270,3.0,4.0,72,0.00,,---,0.01,VWS V14.01,2013-12-13 06:25:00,
2013-12-12 23:30:00,27.0,19.2,30.00,WSW,248,2.0,5.0,72,0.00,,---,0.01,VWS V14.01,2013-12-13 06:30:00,
2013-12-12 23:35:00,26.9,19.1,30.00,West,270,2.0,6.0,72,0.00,,---,0.01,VWS V14.01,2013-12-13 06:35:00,
2013-12-12 23:40:00,26.1,19.0,30.00,West,270,4.0,5.0,74,0.00,,---,0.01,VWS V14.01,2013-12-13 06:40:00,
2013-12-12 23:45:00,24.6,18.1,30.00,West,270,3.0,5.0,76,0.00,,---,0.01,VWS V14.01,2013-12-13 06:45:00,
2013-12-12 23:50:00,23.4,17.3,30.00,West,270,2.0,5.0,77,0.00,,---,0.01,VWS V14.01,2013-12-13 06:50:00,
2013-12-12 23:55:00,22.7,17.2,29.99,SW,225,1.0,3.0,79,0.00,,---,0.01,VWS V14.01,2013-12-13 06:55:00,